< Typhoon 201318 2013 Season Typhoon 201320 >
Typhoon 201319 (USAGI)
General InformationTrack Information on Google MapsDetailed Wind InformationForecast History on Google MapsAccess Analytics MapList of All Images || NewsDisaster Info.WeblogTrackbackTyphoon FrontTwiphoonTyphoon Now!Typhoon ImaginationDisaster Info. XMLResourceGoogle EarthGE AnimationAtom FeedGeoJSON
Detalied Best Track (Time Zone = UTC)
Year Month Day Hour Lat. Long. Pressure (hPa) Wind (kt) Class Image Chart
2013 9 16 00 17.3 132.0 1006 0 2 Image Chart
2013 9 16 06 17.3 132.3 1002 0 2 Image Chart
2013 9 16 12 17.0 132.4 1002 0 2 Image Chart
2013 9 16 18 17.0 132.1 1000 35 3 Image Chart
2013 9 17 00 17.0 131.9 1000 35 3 Image Chart
2013 9 17 06 17.2 131.4 998 35 3 Image Chart
2013 9 17 12 17.2 131.1 994 40 3 Image Chart
2013 9 17 18 17.2 130.7 990 45 3 Image Chart
2013 9 18 00 17.0 130.5 985 50 4 Image Chart
2013 9 18 06 17.1 130.2 980 55 4 Image Chart
2013 9 18 12 17.3 129.6 970 65 5 Image Chart
2013 9 18 18 17.1 128.6 960 70 5 Image Chart
2013 9 19 00 16.9 128.3 950 80 5 Image Chart
2013 9 19 06 17.5 128.0 925 95 5 Image Chart
2013 9 19 12 18.1 127.3 915 105 5 Image Chart
2013 9 19 18 18.7 126.4 910 110 5 Image Chart
2013 9 20 00 19.3 125.5 910 110 5 Image Chart
2013 9 20 06 19.7 124.6 910 110 5 Image Chart
2013 9 20 12 20.1 123.8 910 110 5 Image Chart
2013 9 20 18 20.4 122.6 915 105 5 Image Chart
2013 9 21 00 20.6 121.8 920 100 5 Image Chart
2013 9 21 06 20.8 120.8 925 90 5 Image Chart
2013 9 21 12 21.1 119.7 930 85 5 Image Chart
2013 9 21 18 21.4 118.9 935 85 5 Image Chart
2013 9 22 00 21.8 117.9 935 85 5 Image Chart
2013 9 22 06 22.4 116.8 935 85 5 Image Chart
2013 9 22 12 22.9 115.4 940 80 5 Image Chart
2013 9 22 18 23.1 113.9 975 50 4 Image Chart
2013 9 23 00 23.6 112.5 990 40 3 Image Chart
2013 9 23 06 24.3 111.2 996 0 2 Image Chart
2013 9 23 12 24.6 110.2 998 0 2 Image Chart
2013 9 23 18 24.9 109.4 1000 0 2 Image Chart
2013 9 24 00 25.1 108.5 1004 0 2 Image Chart
Japan Meteorological Agency Best Track Data | Correction Date : 2013-10-23
< Typhoon 201318 2013 Season Typhoon 201320 >

Help